Time;durP1;ratioP1;P1;durP2;ratioP2;P2;SDS_P1;SDS_P2;PMS_P1;PMS_P2;Temp;Humidity;BMP_temperature;BMP_pressure;BME280_temperature;BME280_humidity;BME280_pressure;Samples;Min_cycle;Max_cycle;Signal;HPM_P1;HPM_P2
2022/07/05 00:01:04;;;;;;;0.40;0.27;;;;;;;23.41;92.33;95429.06;5135014;27;20458;-63
2022/07/05 00:03:32;;;;;;;0.40;0.30;;;;;;;23.15;99.09;95437.63;5136004;27;20410;-63
2022/07/05 00:06:01;;;;;;;1.00;0.30;;;;;;;23.22;99.45;95440.53;5136138;27;20469;-63
2022/07/05 00:08:29;;;;;;;0.70;0.33;;;;;;;22.62;100.00;95440.75;5135570;27;20972;-63
2022/07/05 00:10:58;;;;;;;0.50;0.30;;;;;;;22.39;100.00;95436.97;5135359;27;20937;-63
2022/07/05 00:13:26;;;;;;;0.47;0.30;;;;;;;22.13;100.00;95440.84;5135480;27;20462;-64
2022/07/05 00:15:55;;;;;;;1.13;1.07;;;;;;;22.43;100.00;95438.66;5135949;27;20470;-63
2022/07/05 00:18:25;;;;;;;1.77;0.80;;;;;;;22.59;100.00;95431.41;5135442;27;20881;-63
2022/07/05 00:20:53;;;;;;;0.60;0.60;;;;;;;22.36;100.00;95427.66;5135665;27;20461;-63
2022/07/05 00:23:22;;;;;;;0.50;0.40;;;;;;;22.72;100.00;95434.88;5135457;27;20433;-63
2022/07/05 00:25:50;;;;;;;0.50;0.30;;;;;;;22.73;100.00;95433.75;5135477;27;20497;-63
2022/07/05 00:28:18;;;;;;;0.50;0.30;;;;;;;22.65;100.00;95434.69;5135383;27;20526;-62
2022/07/05 00:30:47;;;;;;;0.60;0.40;;;;;;;22.69;100.00;95425.53;5135760;27;20881;-63
2022/07/05 00:33:15;;;;;;;0.73;0.73;;;;;;;22.79;100.00;95426.19;5135377;27;20427;-63
2022/07/05 00:35:46;;;;;;;0.50;0.30;;;;;;;22.81;100.00;95422.03;5134908;27;20998;-63
2022/07/05 00:38:14;;;;;;;0.50;0.40;;;;;;;22.87;100.00;95431.44;5135259;27;21011;-63
2022/07/05 00:40:43;;;;;;;0.40;0.30;;;;;;;22.59;100.00;95401.69;5135173;27;20433;-63
2022/07/05 00:43:12;;;;;;;0.50;0.30;;;;;;;22.80;100.00;95430.47;5135131;27;20469;-63
2022/07/05 00:45:40;;;;;;;0.50;0.30;;;;;;;22.73;100.00;95429.16;5135057;27;20533;-63
2022/07/05 00:48:08;;;;;;;0.60;0.50;;;;;;;22.36;100.00;95432.25;5135470;27;20434;-63
2022/07/05 00:50:37;;;;;;;0.50;0.40;;;;;;;22.24;100.00;95430.34;5134890;27;20543;-63
2022/07/05 00:53:14;;;;;;;0.70;0.40;;;;;;;21.46;100.00;95371.22;5135078;27;20410;-63
2022/07/05 00:55:44;;;;;;;0.80;0.73;;;;;;;21.63;100.00;95436.88;5134978;27;20502;-63
2022/07/05 00:58:13;;;;;;;0.57;0.30;;;;;;;21.94;100.00;95431.72;5134868;27;20415;-63
2022/07/05 01:00:41;;;;;;;0.40;0.30;;;;;;;21.81;100.00;95420.13;5134614;27;20514;-63
2022/07/05 01:03:10;;;;;;;0.50;0.30;;;;;;;22.12;100.00;95427.66;5134682;27;20422;-63
2022/07/05 01:05:38;;;;;;;0.50;0.30;;;;;;;22.14;100.00;95412.72;5134638;27;20427;-63
2022/07/05 01:08:07;;;;;;;0.70;0.70;;;;;;;22.40;100.00;95415.03;5134580;27;20522;-63
2022/07/05 01:10:38;;;;;;;0.50;0.40;;;;;;;22.57;100.00;95414.75;5134538;27;20962;-63
2022/07/05 01:13:07;;;;;;;0.50;0.50;;;;;;;22.68;100.00;95415.88;5134497;27;20476;-63
2022/07/05 01:15:35;;;;;;;0.40;0.30;;;;;;;22.77;100.00;95413.00;5134227;27;20516;-63
2022/07/05 01:18:06;;;;;;;0.40;0.20;;;;;;;22.85;100.00;95414.00;5134330;27;20463;-63
2022/07/05 01:20:35;;;;;;;0.50;0.40;;;;;;;22.76;100.00;95422.25;5134340;27;20518;-64
2022/07/05 01:23:05;;;;;;;0.43;0.33;;;;;;;22.04;100.00;95421.28;5134230;27;20794;-63
2022/07/05 01:25:34;;;;;;;0.50;0.40;;;;;;;21.62;100.00;95427.19;5134271;27;20458;-62
2022/07/05 01:28:04;;;;;;;2.93;0.30;;;;;;;21.95;100.00;95430.63;5134134;27;20525;-63
2022/07/05 01:30:36;;;;;;;1.27;0.30;;;;;;;21.44;100.00;95348.41;5134148;27;20881;-63
2022/07/05 01:33:07;;;;;;;2.50;2.40;;;;;;;22.05;100.00;95389.66;5133953;27;20437;-63
2022/07/05 01:35:36;;;;;;;0.50;0.37;;;;;;;21.60;100.00;95430.25;5134001;27;20461;-62
2022/07/05 01:38:06;;;;;;;0.50;0.47;;;;;;;20.90;100.00;95436.66;5133917;27;20447;-62
2022/07/05 01:40:34;;;;;;;0.73;0.40;;;;;;;20.57;100.00;95438.53;5134274;27;20454;-61
2022/07/05 01:43:03;;;;;;;0.83;0.83;;;;;;;20.80;100.00;95434.38;5133859;27;21142;-61
2022/07/05 01:45:41;;;;;;;0.80;0.40;;;;;;;20.56;100.00;95442.34;5134189;27;20419;-61
2022/07/05 01:48:16;;;;;;;0.60;0.43;;;;;;;20.74;100.00;95449.19;5133743;27;20435;-61
2022/07/05 01:50:49;;;;;;;1.33;0.33;;;;;;;21.16;100.00;95442.63;5133940;27;20799;-60
2022/07/05 01:53:24;;;;;;;0.40;0.30;;;;;;;21.56;100.00;95447.41;5133654;27;20415;-60
2022/07/05 01:55:57;;;;;;;1.17;1.13;;;;;;;21.32;100.00;95440.88;5133805;27;20460;-60
2022/07/05 01:58:31;;;;;;;0.50;0.30;;;;;;;21.47;100.00;95447.53;5133544;27;20451;-60
2022/07/05 02:01:00;;;;;;;0.50;0.37;;;;;;;21.48;100.00;95449.09;5133472;27;20810;-60
2022/07/05 02:03:31;;;;;;;0.50;0.30;;;;;;;21.63;100.00;95444.97;5132807;27;20932;-60
2022/07/05 02:06:20;;;;;;;0.40;0.30;;;;;;;21.70;100.00;95448.69;5133436;27;20441;-60
2022/07/05 02:08:50;;;;;;;0.40;0.20;;;;;;;21.62;100.00;95443.38;5133289;27;20518;-60
2022/07/05 02:11:22;;;;;;;0.50;0.30;;;;;;;21.69;100.00;95460.59;5133336;27;20430;-60
2022/07/05 02:13:53;;;;;;;0.40;0.30;;;;;;;21.06;100.00;95351.41;5132871;27;21056;-60
2022/07/05 02:16:24;;;;;;;0.90;0.80;;;;;;;21.71;100.00;95436.75;5133334;27;20556;-60
2022/07/05 02:18:54;;;;;;;0.50;0.40;;;;;;;20.73;100.00;95291.34;5133092;27;20514;-60
2022/07/05 02:21:23;;;;;;;0.50;0.30;;;;;;;20.66;100.00;95277.66;5133468;27;20450;-60
2022/07/05 02:23:54;;;;;;;0.50;0.50;;;;;;;21.75;100.00;95432.28;5133347;27;20500;-60
2022/07/05 02:26:23;;;;;;;0.50;0.37;;;;;;;21.11;100.00;95343.09;5133076;27;20502;-60
2022/07/05 02:28:53;;;;;;;0.40;0.30;;;;;;;21.25;100.00;95437.91;5133266;27;20465;-60
2022/07/05 02:31:22;;;;;;;0.50;0.43;;;;;;;21.31;100.00;95439.28;5132825;27;20422;-61
2022/07/05 02:33:52;;;;;;;0.50;0.40;;;;;;;21.21;100.00;95437.00;5133049;27;20461;-60
2022/07/05 02:36:20;;;;;;;0.50;0.40;;;;;;;21.56;100.00;95431.22;5133172;27;20477;-60
2022/07/05 02:38:49;;;;;;;0.40;0.30;;;;;;;21.71;100.00;95433.25;5132932;27;20462;-60
2022/07/05 02:41:18;;;;;;;0.40;0.30;;;;;;;21.83;100.00;95438.69;5132617;27;20995;-60
2022/07/05 02:43:47;;;;;;;0.50;0.30;;;;;;;21.55;100.00;95432.38;5132880;27;20506;-60
2022/07/05 02:46:15;;;;;;;0.73;0.73;;;;;;;21.27;100.00;95429.50;5132722;27;20513;-60
2022/07/05 02:48:44;;;;;;;0.50;0.30;;;;;;;21.63;100.00;95424.16;5133035;27;20494;-61
2022/07/05 02:51:16;;;;;;;1.63;0.40;;;;;;;21.66;100.00;95430.78;5132906;27;20463;-60
2022/07/05 02:53:44;;;;;;;0.40;0.30;;;;;;;21.77;100.00;95432.72;5132554;27;20415;-61
2022/07/05 02:56:13;;;;;;;0.50;0.40;;;;;;;21.83;100.00;95439.44;5132523;27;21054;-61
2022/07/05 02:58:43;;;;;;;0.43;0.30;;;;;;;21.85;100.00;95434.56;5132839;27;20427;-60
2022/07/05 03:01:12;;;;;;;0.40;0.30;;;;;;;21.66;100.00;95431.59;5132060;27;20509;-61
2022/07/05 03:03:41;;;;;;;0.60;0.50;;;;;;;21.78;100.00;95428.13;5132620;28;20501;-60
2022/07/05 03:06:09;;;;;;;1.03;0.40;;;;;;;21.78;100.00;95436.22;5132403;28;20422;-60
2022/07/05 03:08:38;;;;;;;0.73;0.73;;;;;;;21.92;100.00;95439.38;5132423;28;20453;-57
2022/07/05 03:11:06;;;;;;;1.87;0.50;;;;;;;21.69;100.00;95385.06;5132757;28;20427;-57
2022/07/05 03:13:35;;;;;;;0.50;0.40;;;;;;;21.55;100.00;95443.16;5132216;28;20422;-57
2022/07/05 03:16:05;;;;;;;0.70;0.50;;;;;;;21.08;100.00;95440.00;5133669;27;20477;-57
2022/07/05 03:18:33;;;;;;;0.40;0.40;;;;;;;20.88;100.00;95438.91;5136598;27;20437;-57
2022/07/05 03:21:02;;;;;;;0.60;0.50;;;;;;;21.36;100.00;95444.47;5136893;27;20454;-57
2022/07/05 03:23:30;;;;;;;0.47;0.30;;;;;;;21.17;100.00;95444.22;5136750;27;20434;-57
2022/07/05 03:25:59;;;;;;;0.50;0.30;;;;;;;21.29;100.00;95438.84;5136835;27;20509;-57
2022/07/05 03:28:27;;;;;;;1.27;0.87;;;;;;;20.97;100.00;95441.53;5136346;27;20513;-57
2022/07/05 03:30:56;;;;;;;0.70;0.70;;;;;;;21.25;100.00;95434.47;5135748;27;20446;-57
2022/07/05 03:33:25;;;;;;;0.90;0.90;;;;;;;21.18;100.00;95437.69;5136617;27;20505;-57
2022/07/05 03:35:57;;;;;;;0.50;0.40;;;;;;;21.22;100.00;95438.59;5136167;27;20503;-57
2022/07/05 03:38:25;;;;;;;0.50;0.30;;;;;;;21.33;100.00;95437.03;5136500;27;20461;-57
2022/07/05 03:40:53;;;;;;;1.13;1.03;;;;;;;20.68;100.00;95455.88;5136135;27;21015;-57
2022/07/05 03:43:22;;;;;;;0.43;0.30;;;;;;;20.21;100.00;95453.31;5136208;27;20506;-57
2022/07/05 03:45:50;;;;;;;0.40;0.20;;;;;;;20.17;100.00;95451.59;5136022;27;20932;-57
2022/07/05 03:48:19;;;;;;;0.63;0.50;;;;;;;20.62;100.00;95452.56;5136159;27;20427;-57
2022/07/05 03:51:09;;;;;;;0.40;0.30;;;;;;;20.67;100.00;95448.91;5135865;27;20437;-57
2022/07/05 03:53:37;;;;;;;0.50;0.40;;;;;;;20.38;100.00;95451.66;5135886;27;20429;-57
2022/07/05 03:56:06;;;;;;;0.50;0.40;;;;;;;20.75;100.00;95450.72;5135783;27;20502;-57
2022/07/05 03:58:34;;;;;;;0.73;0.73;;;;;;;20.82;100.00;95441.00;5136026;27;20446;-58
2022/07/05 04:01:03;;;;;;;0.67;0.67;;;;;;;20.92;100.00;95444.41;5135861;27;20450;-58
2022/07/05 04:03:32;;;;;;;0.50;0.40;;;;;;;20.81;100.00;95441.34;5136174;27;20430;-58
2022/07/05 04:06:09;;;;;;;0.50;0.30;;;;;;;20.94;100.00;95434.09;5136206;27;20414;-59
2022/07/05 04:08:38;;;;;;;0.50;0.30;;;;;;;21.29;100.00;95432.66;5136014;27;20454;-58
2022/07/05 04:11:07;;;;;;;0.40;0.30;;;;;;;21.14;100.00;95401.75;5135990;27;20451;-59
2022/07/05 04:13:36;;;;;;;0.50;0.30;;;;;;;20.81;100.00;95438.66;5135380;27;20456;-59
2022/07/05 04:16:05;;;;;;;1.70;0.47;;;;;;;21.05;100.00;95432.56;5135815;27;20808;-58
2022/07/05 04:18:33;;;;;;;0.93;0.93;;;;;;;20.67;100.00;95428.13;5135126;27;20426;-59
2022/07/05 04:21:02;;;;;;;0.80;0.73;;;;;;;21.23;100.00;95429.38;5135562;27;20506;-58
2022/07/05 04:23:32;;;;;;;0.53;0.40;;;;;;;20.92;100.00;95410.94;5135507;27;20505;-59
2022/07/05 04:26:02;;;;;;;0.50;0.40;;;;;;;20.80;100.00;95432.47;5135124;27;20480;-59
2022/07/05 04:28:30;;;;;;;0.43;0.30;;;;;;;21.22;100.00;95427.03;5135147;27;20450;-58
2022/07/05 04:30:59;;;;;;;1.10;0.40;;;;;;;21.54;100.00;95431.56;5135227;27;21041;-58
2022/07/05 04:33:28;;;;;;;0.40;0.30;;;;;;;21.38;100.00;95431.44;5135417;27;20966;-58
2022/07/05 04:35:57;;;;;;;0.40;0.30;;;;;;;21.76;100.00;95441.13;5135400;27;20625;-59
2022/07/05 04:38:25;;;;;;;0.50;0.33;;;;;;;21.91;100.00;95429.69;5135514;27;20422;-59
2022/07/05 04:40:57;;;;;;;0.40;0.30;;;;;;;22.09;100.00;95434.53;5136158;27;20442;-59
2022/07/05 04:43:26;;;;;;;0.50;0.30;;;;;;;21.95;100.00;95434.09;5136491;27;20410;-59
2022/07/05 04:45:55;;;;;;;0.40;0.23;;;;;;;22.00;100.00;95435.78;5136810;27;20441;-59
2022/07/05 04:48:24;;;;;;;0.67;0.67;;;;;;;22.19;100.00;95437.91;5136749;27;20426;-59
2022/07/05 04:50:53;;;;;;;0.40;0.30;;;;;;;22.35;100.00;95426.06;5135292;27;20426;-59
2022/07/05 04:53:21;;;;;;;0.60;0.53;;;;;;;22.59;100.00;95431.41;5134945;27;20430;-59
2022/07/05 04:55:50;;;;;;;0.50;0.30;;;;;;;22.42;100.00;95393.84;5135038;27;20474;-59
2022/07/05 04:58:20;;;;;;;0.50;0.40;;;;;;;22.46;100.00;95435.28;5134530;27;21117;-59
2022/07/05 05:00:49;;;;;;;0.40;0.30;;;;;;;22.64;100.00;95430.41;5135059;27;20466;-59
2022/07/05 05:03:19;;;;;;;0.40;0.30;;;;;;;22.66;100.00;95431.66;5136228;27;20452;-65
2022/07/05 05:05:47;;;;;;;0.70;0.40;;;;;;;22.86;100.00;95437.19;5143076;27;20462;-64
2022/07/05 05:08:17;;;;;;;0.50;0.40;;;;;;;22.81;100.00;95394.22;5151315;27;20518;-66
2022/07/05 05:10:47;;;;;;;0.50;0.50;;;;;;;22.74;100.00;95356.97;5152878;27;20430;-67
2022/07/05 05:13:16;;;;;;;0.80;0.80;;;;;;;23.33;100.00;95436.19;5144291;27;20430;-67
2022/07/05 05:15:46;;;;;;;0.43;0.30;;;;;;;23.56;100.00;95424.78;5138802;27;20516;-68
2022/07/05 05:18:18;;;;;;;0.60;0.60;;;;;;;23.84;100.00;95430.91;5154485;27;20932;-68
2022/07/05 05:20:46;;;;;;;1.67;0.37;;;;;;;23.85;100.00;95421.66;5146321;27;20430;-67
2022/07/05 05:23:15;;;;;;;0.40;0.30;;;;;;;24.16;100.00;95418.16;5134857;27;20526;-67
2022/07/05 05:25:43;;;;;;;0.50;0.30;;;;;;;24.07;99.50;95418.31;5134223;27;20469;-66
2022/07/05 05:28:11;;;;;;;0.47;0.27;;;;;;;24.32;100.00;95416.97;5134415;27;20427;-65
2022/07/05 05:30:40;;;;;;;0.50;0.40;;;;;;;24.33;96.56;95423.19;5134290;27;20447;-64
2022/07/05 05:33:09;;;;;;;0.53;0.50;;;;;;;24.61;100.00;95413.75;5133912;27;20474;-64
2022/07/05 05:35:38;;;;;;;0.47;0.37;;;;;;;24.17;96.88;95414.28;5133986;27;20415;-64
2022/07/05 05:38:06;;;;;;;0.40;0.33;;;;;;;24.27;100.00;95427.28;5133003;27;20486;-62
2022/07/05 05:40:37;;;;;;;1.97;0.70;;;;;;;24.46;100.00;95408.38;5133612;27;20858;-62
2022/07/05 05:43:06;;;;;;;0.53;0.47;;;;;;;24.47;98.29;95418.84;5134081;27;20430;-62
2022/07/05 05:45:34;;;;;;;1.27;1.07;;;;;;;23.15;100.00;95423.31;5133813;27;20436;-62
2022/07/05 05:48:03;;;;;;;0.80;0.80;;;;;;;22.96;100.00;95431.31;5133814;27;20832;-63
2022/07/05 05:50:34;;;;;;;0.93;0.87;;;;;;;23.01;100.00;95426.44;5134069;27;20418;-62
2022/07/05 05:53:04;;;;;;;0.50;0.40;;;;;;;23.39;100.00;95428.63;5133486;27;20467;-62
2022/07/05 05:55:33;;;;;;;0.90;0.70;;;;;;;23.88;100.00;95432.56;5133642;27;20462;-62
2022/07/05 05:58:12;;;;;;;0.70;0.70;;;;;;;23.72;100.00;95434.50;5133228;27;20517;-62
2022/07/05 06:00:40;;;;;;;0.47;0.30;;;;;;;24.41;100.00;95430.34;5133446;27;20491;-61
2022/07/05 06:03:09;;;;;;;1.23;1.13;;;;;;;24.61;96.45;95427.31;5133589;27;20449;-61
2022/07/05 06:05:39;;;;;;;0.70;0.40;;;;;;;25.21;100.00;95428.50;5133680;27;20435;-61
2022/07/05 06:08:07;;;;;;;1.63;1.53;;;;;;;24.94;97.58;95428.75;5133277;27;20458;-61
2022/07/05 06:10:36;;;;;;;0.70;0.70;;;;;;;24.39;98.86;95432.59;5133357;27;20513;-61
2022/07/05 06:13:07;;;;;;;0.73;0.67;;;;;;;25.15;100.00;95419.09;5133120;27;20438;-61
2022/07/05 06:15:35;;;;;;;0.73;0.67;;;;;;;25.57;85.77;95418.31;5133110;27;20854;-61
2022/07/05 06:18:04;;;;;;;0.40;0.30;;;;;;;26.18;79.64;95410.03;5133115;27;20525;-61
2022/07/05 06:20:33;;;;;;;0.90;0.63;;;;;;;26.40;72.00;95415.41;5133191;27;20497;-60
2022/07/05 06:23:04;;;;;;;1.00;0.90;;;;;;;25.88;84.51;95426.22;5133107;27;20439;-61
2022/07/05 06:25:36;;;;;;;0.50;0.40;;;;;;;26.15;80.85;95421.63;5133401;27;20494;-61
2022/07/05 06:28:06;;;;;;;0.40;0.30;;;;;;;26.40;83.23;95407.25;5132847;27;20915;-61
2022/07/05 06:30:36;;;;;;;0.50;0.40;;;;;;;26.79;77.30;95402.31;5133179;27;20493;-61
2022/07/05 06:33:05;;;;;;;0.70;0.60;;;;;;;26.56;71.90;95376.38;5133228;27;20534;-61
2022/07/05 06:35:34;;;;;;;0.50;0.50;;;;;;;27.25;73.36;95397.41;5133047;27;20785;-62
2022/07/05 06:38:05;;;;;;;0.57;0.50;;;;;;;26.57;73.06;95396.94;5132800;27;20546;-62
2022/07/05 06:40:35;;;;;;;0.80;0.80;;;;;;;26.72;77.04;95401.41;5132833;27;20509;-62
2022/07/05 06:43:06;;;;;;;0.83;0.83;;;;;;;27.11;69.28;95391.81;5132229;27;20427;-63
2022/07/05 06:45:35;;;;;;;0.70;0.70;;;;;;;27.11;67.81;95399.97;5133055;27;20426;-63
2022/07/05 06:48:06;;;;;;;0.77;0.77;;;;;;;27.55;66.74;95395.38;5132132;27;20490;-64
2022/07/05 06:50:37;;;;;;;0.77;0.77;;;;;;;27.31;62.10;95384.25;5132816;27;20499;-64
2022/07/05 06:53:07;;;;;;;0.70;0.50;;;;;;;27.47;63.03;95385.63;5132941;27;20481;-64
2022/07/05 06:55:35;;;;;;;0.60;0.57;;;;;;;27.49;61.48;95383.28;5132260;27;20461;-64
2022/07/05 06:58:05;;;;;;;0.70;0.70;;;;;;;27.92;62.92;95378.19;5132808;27;21028;-63
2022/07/05 07:00:42;;;;;;;0.50;0.50;;;;;;;28.45;61.54;95387.50;5132643;27;20418;-56
2022/07/05 07:03:30;;;;;;;0.50;0.40;;;;;;;29.04;58.60;95380.78;5132284;27;20441;-56
2022/07/05 07:06:19;;;;;;;0.47;0.40;;;;;;;28.80;56.70;95384.97;5131989;28;20442;-56
2022/07/05 07:11:34;;;;;;;0.80;0.50;;;;;;;29.00;55.06;95379.19;5132901;28;20893;-56
2022/07/05 07:14:02;;;;;;;0.50;0.40;;;;;;;28.75;60.99;95374.44;5132211;28;20548;-58
2022/07/05 07:16:31;;;;;;;1.90;0.60;;;;;;;29.06;57.44;95383.13;5132545;28;20487;-57
2022/07/05 07:19:00;;;;;;;0.50;0.40;;;;;;;29.32;54.52;95377.38;5132633;28;20466;-57
2022/07/05 07:21:41;;;;;;;0.50;0.50;;;;;;;29.62;53.05;95366.88;5131749;28;20505;-57
2022/07/05 07:24:11;;;;;;;0.40;0.40;;;;;;;30.05;49.45;95376.66;5132448;28;20426;-57
2022/07/05 07:29:25;;;;;;;0.50;0.50;;;;;;;30.22;52.23;95369.59;5132238;28;20438;-58
2022/07/05 07:31:54;;;;;;;0.90;0.40;;;;;;;30.99;49.00;95365.88;5132108;28;20427;-58
2022/07/05 07:34:22;;;;;;;0.47;0.40;;;;;;;31.37;45.68;95364.09;5131952;28;20418;-59
2022/07/05 07:36:52;;;;;;;0.90;0.70;;;;;;;31.06;44.85;95365.06;5132434;28;20901;-59
2022/07/05 07:39:22;;;;;;;0.50;0.43;;;;;;;30.29;46.37;95350.44;5132488;28;20422;-59
2022/07/05 07:41:49;;;;;;;0.77;0.40;;;;;;;31.02;44.13;95364.31;5132522;28;20430;-59
2022/07/05 07:44:18;;;;;;;0.40;0.40;;;;;;;31.45;45.39;95365.63;5132279;28;20506;-59
2022/07/05 07:46:47;;;;;;;0.60;0.50;;;;;;;31.01;45.56;95368.22;5131793;28;20521;-59
2022/07/05 07:49:15;;;;;;;0.40;0.30;;;;;;;31.68;43.42;95365.06;5132419;28;20415;-59
2022/07/05 07:51:44;;;;;;;1.47;0.50;;;;;;;31.63;43.22;95357.28;5132512;28;20450;-60
2022/07/05 07:54:13;;;;;;;0.40;0.40;;;;;;;31.85;41.97;95355.94;5132335;28;20513;-61
2022/07/05 07:56:43;;;;;;;0.40;0.27;;;;;;;32.64;40.30;95346.56;5132394;28;20431;-61
2022/07/05 07:59:12;;;;;;;0.60;0.60;;;;;;;32.44;42.17;95349.09;5131981;28;21048;-62
2022/07/05 08:01:40;;;;;;;0.50;0.50;;;;;;;32.68;39.97;95349.25;5132788;27;20462;-63
2022/07/05 08:04:13;;;;;;;0.50;0.50;;;;;;;32.86;40.87;95350.63;5135803;27;20454;-64
2022/07/05 08:06:43;;;;;;;0.77;0.53;;;;;;;33.01;40.33;95331.97;5136074;27;20439;-64
2022/07/05 08:09:12;;;;;;;1.47;0.60;;;;;;;32.20;39.72;95289.81;5135631;27;20433;-63
2022/07/05 08:11:46;;;;;;;0.80;0.60;;;;;;;32.84;40.14;95355.72;5135702;27;20884;-63
2022/07/05 08:14:15;;;;;;;0.40;0.40;;;;;;;33.24;38.16;95349.31;5135475;27;20464;-61
2022/07/05 08:16:44;;;;;;;0.50;0.40;;;;;;;32.14;38.50;95189.97;5135526;27;20514;-63
2022/07/05 08:22:07;;;;;;;0.60;0.50;;;;;;;33.65;39.46;95335.38;5135795;27;20432;-61
2022/07/05 08:24:37;;;;;;;0.70;0.70;;;;;;;32.75;41.49;95341.72;5135568;27;20463;-63
2022/07/05 08:27:07;;;;;;;3.43;1.17;;;;;;;32.22;42.38;95287.44;5135551;27;20918;-61
2022/07/05 08:29:35;;;;;;;0.60;0.47;;;;;;;32.43;41.52;95338.53;5135149;27;20528;-60
2022/07/05 08:32:06;;;;;;;1.10;0.57;;;;;;;32.94;43.90;95304.63;5135561;27;20433;-62
2022/07/05 08:34:34;;;;;;;0.40;0.30;;;;;;;33.14;41.80;95316.53;5135249;27;20456;-60
2022/07/05 08:37:04;;;;;;;0.40;0.30;;;;;;;33.66;40.26;95246.22;5135111;27;20484;-58
2022/07/05 08:39:41;;;;;;;0.50;0.40;;;;;;;34.19;41.94;95332.53;5134820;27;20481;-59
2022/07/05 08:42:11;;;;;;;1.43;1.33;;;;;;;34.28;39.61;95327.28;5135307;27;20497;-57
2022/07/05 08:44:42;;;;;;;0.60;0.60;;;;;;;33.19;40.42;95332.53;5135255;27;20431;-59
2022/07/05 08:47:12;;;;;;;0.50;0.50;;;;;;;33.71;40.05;95325.47;5134934;27;20462;-59
2022/07/05 08:49:41;;;;;;;0.50;0.50;;;;;;;33.69;40.35;95256.41;5134877;27;20979;-58
2022/07/05 08:52:13;;;;;;;0.40;0.30;;;;;;;33.82;40.58;95256.56;5134753;27;20528;-58
2022/07/05 08:54:41;;;;;;;0.70;0.70;;;;;;;33.61;41.24;95312.69;5134354;27;20829;-58
2022/07/05 08:57:12;;;;;;;0.80;0.47;;;;;;;33.60;44.78;95302.88;5134743;27;20768;-58
2022/07/05 08:59:42;;;;;;;0.83;0.50;;;;;;;33.45;40.08;95241.06;5134292;27;20470;-58
2022/07/05 09:02:17;;;;;;;0.53;0.50;;;;;;;33.84;36.12;95287.16;5134806;27;20435;-58
2022/07/05 09:04:46;;;;;;;0.70;0.70;;;;;;;34.02;36.84;95301.38;5134533;27;20427;-58
2022/07/05 09:07:18;;;;;;;0.83;0.83;;;;;;;35.08;38.11;95304.84;5134435;27;20423;-57
2022/07/05 09:09:51;;;;;;;0.50;0.50;;;;;;;35.19;36.65;95296.34;5134344;27;20493;-58
2022/07/05 09:12:21;;;;;;;0.40;0.30;;;;;;;35.58;35.27;95297.00;5134372;27;20436;-58
2022/07/05 09:14:55;;;;;;;0.80;0.50;;;;;;;35.49;35.48;95296.03;5134125;27;20508;-57
2022/07/05 09:17:26;;;;;;;0.40;0.40;;;;;;;34.65;36.55;95266.41;5134233;27;20950;-57
2022/07/05 09:20:09;;;;;;;0.30;0.20;;;;;;;35.68;36.95;95290.44;5134235;27;20552;-58
2022/07/05 09:23:03;;;;;;;0.50;0.40;;;;;;;35.73;35.77;95278.09;5134206;27;20429;-57
2022/07/05 09:25:33;;;;;;;0.50;0.50;;;;;;;35.22;33.53;95285.22;5134300;27;20494;-57
2022/07/05 09:28:04;;;;;;;0.60;0.60;;;;;;;35.25;33.77;95275.31;5134059;27;20469;-57
2022/07/05 09:30:36;;;;;;;0.50;0.40;;;;;;;35.81;38.96;95282.25;5134399;27;20422;-56
2022/07/05 09:33:06;;;;;;;0.40;0.30;;;;;;;36.66;33.77;95277.25;5134046;27;20797;-56
2022/07/05 09:35:37;;;;;;;0.50;0.40;;;;;;;36.30;33.78;95278.22;5133992;27;20472;-58
2022/07/05 09:38:06;;;;;;;0.70;0.70;;;;;;;35.88;36.14;95275.75;5133969;27;20738;-57
2022/07/05 09:40:47;;;;;;;0.60;0.60;;;;;;;35.25;36.48;95192.63;5134108;27;20212;-58
2022/07/05 09:43:19;;;;;;;0.40;0.30;;;;;;;34.90;37.24;95260.34;5134173;27;20195;-56
2022/07/05 09:45:55;;;;;;;0.50;0.40;;;;;;;35.73;38.13;95256.03;5133979;27;20192;-57
2022/07/05 09:48:24;;;;;;;0.40;0.40;;;;;;;36.22;37.50;95259.50;5134049;27;20191;-57
2022/07/05 09:51:07;;;;;;;0.40;0.30;;;;;;;36.19;36.05;95261.16;5133949;27;20195;-58
2022/07/05 09:53:58;;;;;;;1.60;0.50;;;;;;;36.68;36.57;95247.19;5133640;27;20672;-57
2022/07/05 09:56:31;;;;;;;0.50;0.43;;;;;;;35.75;35.74;95253.63;5133498;27;20184;-57
2022/07/05 09:59:19;;;;;;;0.40;0.40;;;;;;;34.67;36.10;95082.28;5133396;27;20204;-57
2022/07/05 10:01:49;;;;;;;0.50;0.50;;;;;;;36.45;36.74;95248.22;5133392;27;20192;-57
2022/07/05 10:04:18;;;;;;;0.70;0.70;;;;;;;36.56;37.48;95247.94;5133535;27;20248;-58
2022/07/05 10:06:47;;;;;;;0.60;0.60;;;;;;;37.05;35.16;95243.72;5133425;27;20237;-57
2022/07/05 10:09:16;;;;;;;0.43;0.40;;;;;;;36.99;35.38;95190.19;5133389;27;20219;-57
2022/07/05 10:11:46;;;;;;;0.70;0.60;;;;;;;36.51;37.52;95234.69;5133289;27;20237;-57
2022/07/05 10:14:21;;;;;;;0.50;0.40;;;;;;;36.72;36.95;95239.56;5132852;27;20579;-57
2022/07/05 10:16:57;;;;;;;0.53;0.30;;;;;;;37.45;34.87;95232.97;5131764;27;20218;-57
2022/07/05 10:19:34;;;;;;;0.73;0.40;;;;;;;37.51;33.51;95226.47;5133048;27;20204;-57
2022/07/05 10:22:03;;;;;;;0.50;0.40;;;;;;;37.48;33.64;95226.56;5133021;27;20192;-56
2022/07/05 10:24:50;;;;;;;0.85;0.85;;;;;;;36.90;33.62;95226.78;5132550;27;20654;-57
2022/07/05 10:27:19;;;;;;;0.40;0.32;;;;;;;37.59;32.49;95217.91;5132840;27;20191;-57
2022/07/05 10:29:51;;;;;;;0.50;0.50;;;;;;;37.67;32.84;95227.53;5133013;27;20195;-58
2022/07/05 10:32:20;;;;;;;0.45;0.45;;;;;;;37.04;32.11;95145.44;5133128;27;20280;-56
2022/07/05 10:34:51;;;;;;;0.63;0.63;;;;;;;36.70;33.33;95211.59;5132823;27;20245;-56
2022/07/05 10:37:27;;;;;;;0.50;0.50;;;;;;;37.71;33.33;95201.28;5132841;27;20188;-59
2022/07/05 10:39:56;;;;;;;0.50;0.50;;;;;;;37.76;32.77;95197.16;5132996;27;20208;-59
2022/07/05 10:42:27;;;;;;;0.70;0.47;;;;;;;38.23;32.56;95195.09;5132884;27;20188;-60
2022/07/05 10:44:57;;;;;;;0.40;0.40;;;;;;;37.58;32.05;95191.47;5132409;27;20226;-59
2022/07/05 10:47:27;;;;;;;0.60;0.60;;;;;;;36.81;34.36;95189.97;5132114;27;20654;-60
2022/07/05 10:50:06;;;;;;;1.38;1.27;;;;;;;35.85;33.62;95194.66;5132372;27;20191;-59
2022/07/05 10:52:34;;;;;;;0.60;0.50;;;;;;;36.10;33.46;95189.25;5132270;27;20242;-60
2022/07/05 10:55:23;;;;;;;0.35;0.30;;;;;;;36.73;32.29;95180.34;5131994;27;20628;-60
2022/07/05 10:58:20;;;;;;;0.70;0.70;;;;;;;36.74;33.38;95176.34;5132305;27;20192;-59
2022/07/05 11:01:43;;;;;;;0.47;0.47;;;;;;;36.35;31.28;95171.22;5132608;27;20215;-60
2022/07/05 11:04:19;;;;;;;1.10;1.10;;;;;;;36.38;31.15;95179.41;5132627;27;20196;-60
2022/07/05 11:06:49;;;;;;;0.50;0.50;;;;;;;36.18;32.22;95179.56;5132634;28;20188;-60
2022/07/05 11:09:19;;;;;;;0.40;0.40;;;;;;;35.90;30.65;95168.53;5132510;28;20555;-60
2022/07/05 11:12:02;;;;;;;0.60;0.60;;;;;;;35.72;31.62;95096.53;5132509;28;20234;-60
2022/07/05 11:14:50;;;;;;;0.98;0.88;;;;;;;35.72;31.39;95102.06;5132402;28;20230;-59
2022/07/05 11:17:29;;;;;;;0.40;0.30;;;;;;;35.94;30.96;95166.44;5132547;28;20264;-57
2022/07/05 11:20:27;;;;;;;0.50;0.50;;;;;;;36.36;30.03;95148.69;5132141;28;20227;-57
2022/07/05 11:23:12;;;;;;;0.50;0.40;;;;;;;36.16;30.92;95173.72;5132489;28;20248;-57
2022/07/05 11:25:46;;;;;;;1.10;0.50;;;;;;;35.94;30.77;95164.47;5132464;28;20192;-57
2022/07/05 11:28:18;;;;;;;0.60;0.60;;;;;;;36.17;30.20;95164.22;5132539;28;20312;-57
2022/07/05 11:30:49;;;;;;;1.17;0.50;;;;;;;36.06;30.18;95155.47;5132242;28;20184;-57
2022/07/05 11:33:34;;;;;;;2.05;0.47;;;;;;;36.06;31.34;95158.22;5132312;28;20208;-56
2022/07/05 11:36:03;;;;;;;0.52;0.40;;;;;;;35.86;30.09;95162.31;5131833;27;20574;-56
2022/07/05 11:38:32;;;;;;;3.42;0.45;;;;;;;36.80;29.79;95150.53;5136484;27;20700;-56
2022/07/05 11:41:21;;;;;;;0.30;0.30;;;;;;;37.16;30.81;95143.88;5136192;27;20228;-56
2022/07/05 11:43:58;;;;;;;0.55;0.38;;;;;;;36.95;29.28;95161.91;5136414;27;20181;-56
2022/07/05 11:46:29;;;;;;;0.40;0.40;;;;;;;36.57;29.54;95161.09;5136549;27;20267;-57
2022/07/05 11:49:20;;;;;;;0.80;0.80;;;;;;;37.06;30.22;95145.78;5135611;27;20233;-57
2022/07/05 11:51:59;;;;;;;11.90;0.40;;;;;;;36.84;29.61;95144.88;5136418;27;20180;-57
2022/07/05 11:54:30;;;;;;;0.43;0.38;;;;;;;37.05;28.36;95148.97;5136307;27;20196;-56
2022/07/05 11:57:00;;;;;;;0.40;0.40;;;;;;;36.95;29.18;95142.56;5136032;27;20223;-57